Time;durP1;ratioP1;P1;durP2;ratioP2;P2;SDS_P1;SDS_P2;PMS_P1;PMS_P2;Temp;Humidity;BMP_temperature;BMP_pressure;BME280_temperature;BME280_humidity;BME280_pressure;Samples;Min_cycle;Max_cycle;Signal;HPM_P1;HPM_P2
2022/10/21 00:00:03;;;;;;;13.67;7.83;;;14.10;99.90;;;;;;6246900;22;20152;-42
2022/10/21 00:02:29;;;;;;;18.30;8.13;;;14.10;99.90;;;;;;6246612;22;20251;-43
2022/10/21 00:04:54;;;;;;;22.23;8.63;;;14.10;99.90;;;;;;6246631;22;20191;-42
2022/10/21 00:07:20;;;;;;;9.43;7.40;;;14.10;99.90;;;;;;6246162;22;20183;-42
2022/10/21 00:09:45;;;;;;;11.97;7.13;;;14.10;99.90;;;;;;6246502;22;20182;-40
2022/10/21 00:12:11;;;;;;;14.83;8.20;;;14.10;99.90;;;;;;6246250;22;20155;-42
2022/10/21 00:14:37;;;;;;;16.13;7.80;;;14.10;99.90;;;;;;6246701;22;20156;-41
2022/10/21 00:17:02;;;;;;;14.53;8.33;;;14.10;99.90;;;;;;6246087;22;20711;-39
2022/10/21 00:19:28;;;;;;;12.47;7.40;;;14.00;99.90;;;;;;6246344;22;20659;-43
2022/10/21 00:21:53;;;;;;;10.97;7.23;;;14.10;99.90;;;;;;6246959;22;20478;-41
2022/10/21 00:24:19;;;;;;;15.10;7.07;;;14.00;99.90;;;;;;6244731;23;20183;-43
2022/10/21 00:26:44;;;;;;;9.23;7.13;;;13.90;99.90;;;;;;6244497;23;20191;-41
2022/10/21 00:29:10;;;;;;;14.13;7.43;;;14.00;99.90;;;;;;6247029;22;20191;-40
2022/10/21 00:31:36;;;;;;;13.37;7.20;;;13.90;99.90;;;;;;6247131;22;20227;-43
2022/10/21 00:34:01;;;;;;;12.60;6.60;;;13.90;99.90;;;;;;6247787;22;20617;-41
2022/10/21 00:36:27;;;;;;;10.43;6.80;;;13.80;99.90;;;;;;6248257;22;20594;-43
2022/10/21 00:38:52;;;;;;;13.83;6.60;;;13.80;99.90;;;;;;6245627;23;20625;-38
2022/10/21 00:41:19;;;;;;;11.87;6.93;;;13.70;99.90;;;;;;6244386;23;20162;-40
2022/10/21 00:43:52;;;;;;;12.63;6.70;;;13.70;99.90;;;;;;6246579;22;20160;-39
2022/10/21 00:46:17;;;;;;;11.67;6.53;;;13.60;99.90;;;;;;6249068;22;20179;-46
2022/10/21 00:48:55;;;;;;;11.77;6.47;;;13.60;99.90;;;;;;6249211;22;20269;-47
2022/10/21 00:51:21;;;;;;;12.90;6.77;;;13.60;99.90;;;;;;6249266;22;20144;-45
2022/10/21 00:53:48;;;;;;;11.60;6.30;;;13.50;99.90;;;;;;6248340;22;20675;-47
2022/10/21 00:56:23;;;;;;;9.67;5.90;;;13.50;99.90;;;;;;6248444;22;20231;-46
2022/10/21 00:58:49;;;;;;;9.67;6.23;;;13.50;99.90;;;;;;6248136;22;20171;-47
2022/10/21 01:01:15;;;;;;;8.30;6.53;;;13.40;99.90;;;;;;6248026;22;20159;-47
2022/10/21 01:03:40;;;;;;;10.00;5.17;;;13.40;99.90;;;;;;6247848;22;20238;-45
2022/10/21 01:06:08;;;;;;;10.40;5.20;;;13.30;99.90;;;;;;6247973;22;20162;-45
2022/10/21 01:08:33;;;;;;;10.60;5.70;;;13.30;99.90;;;;;;6247340;22;20699;-47
2022/10/21 01:11:00;;;;;;;11.77;5.43;;;13.20;99.90;;;;;;6247787;22;20151;-46
2022/10/21 01:13:26;;;;;;;11.23;5.43;;;13.10;99.90;;;;;;6247684;22;20231;-47
2022/10/21 01:15:56;;;;;;;7.67;4.60;;;13.10;99.90;;;;;;6245989;23;20182;-45
2022/10/21 01:18:25;;;;;;;7.47;4.17;;;13.10;99.90;;;;;;6246171;23;20171;-46
2022/10/21 01:20:57;;;;;;;9.23;4.00;;;13.10;99.90;;;;;;6250048;22;20153;-45
2022/10/21 01:23:41;;;;;;;6.50;3.77;;;13.10;99.90;;;;;;6250006;22;20148;-45
2022/10/21 01:26:20;;;;;;;5.20;3.70;;;13.10;99.90;;;;;;6249554;23;20146;-46
2022/10/21 01:29:09;;;;;;;9.53;3.43;;;13.00;99.90;;;;;;6249084;22;20191;-47
2022/10/21 01:31:43;;;;;;;8.13;3.53;;;13.10;99.90;;;;;;6205070;22;20156;-45
2022/10/21 01:34:28;;;;;;;7.23;3.47;;;13.00;99.90;;;;;;6247935;23;20147;-46
2022/10/21 01:37:16;;;;;;;5.83;3.30;;;13.10;99.90;;;;;;6249715;22;20259;-45
2022/10/21 01:39:52;;;;;;;6.97;3.50;;;13.10;99.90;;;;;;6249019;22;20160;-45
2022/10/21 01:42:50;;;;;;;6.10;3.10;;;13.00;99.90;;;;;;6250515;22;20162;-46
2022/10/21 01:45:32;;;;;;;6.23;3.50;;;13.00;99.90;;;;;;6249729;23;20147;-45
2022/10/21 01:48:06;;;;;;;6.40;3.10;;;12.90;99.90;;;;;;6249851;22;20648;-44
2022/10/21 01:50:37;;;;;;;4.23;3.20;;;12.80;99.90;;;;;;6249973;22;20181;-48
2022/10/21 01:53:09;;;;;;;5.47;3.00;;;12.80;99.90;;;;;;6250322;22;20234;-46
2022/10/21 01:55:36;;;;;;;5.27;2.87;;;12.70;99.90;;;;;;6250860;22;20532;-46
2022/10/21 01:58:22;;;;;;;3.60;2.90;;;12.70;99.90;;;;;;6250738;22;20221;-47
2022/10/21 02:00:50;;;;;;;3.57;2.57;;;12.70;99.90;;;;;;6250591;22;20151;-48
2022/10/21 02:03:21;;;;;;;7.07;2.73;;;12.60;99.90;;;;;;6251342;22;20155;-47
2022/10/21 02:05:47;;;;;;;3.67;2.70;;;12.60;99.90;;;;;;6251590;22;20158;-44
2022/10/21 02:08:13;;;;;;;7.53;2.67;;;12.60;99.90;;;;;;6250224;22;20578;-45
2022/10/21 02:10:44;;;;;;;5.47;2.90;;;12.60;99.90;;;;;;6251004;22;20183;-45
2022/10/21 02:13:12;;;;;;;7.07;3.23;;;12.60;99.90;;;;;;6250511;23;20156;-47
2022/10/21 02:15:39;;;;;;;5.43;3.23;;;12.60;99.90;;;;;;6250991;22;20156;-46
2022/10/21 02:18:09;;;;;;;4.87;3.00;;;12.60;99.90;;;;;;6251306;22;20318;-48
2022/10/21 02:20:41;;;;;;;5.87;2.90;;;12.50;99.90;;;;;;6251345;23;20166;-46
2022/10/21 02:23:14;;;;;;;5.17;3.10;;;12.60;99.90;;;;;;6250715;22;20155;-46
2022/10/21 02:25:42;;;;;;;4.53;3.20;;;12.50;99.90;;;;;;6251355;22;20220;-47
2022/10/21 02:28:09;;;;;;;10.23;3.47;;;12.50;99.90;;;;;;6251243;22;20389;-45
2022/10/21 02:30:46;;;;;;;13.73;3.20;;;12.50;99.90;;;;;;6251567;22;20247;-47
2022/10/21 02:33:27;;;;;;;7.33;3.33;;;12.50;99.90;;;;;;6251514;22;20152;-46
2022/10/21 02:36:16;;;;;;;5.63;3.60;;;12.50;99.90;;;;;;6250814;22;20140;-46
2022/10/21 02:38:50;;;;;;;8.97;3.57;;;12.50;99.90;;;;;;6249546;23;20274;-46
2022/10/21 02:41:20;;;;;;;8.40;3.43;;;12.60;99.90;;;;;;6252178;22;20161;-45
2022/10/21 02:43:55;;;;;;;10.57;3.63;;;12.60;99.90;;;;;;6251555;22;20206;-47
2022/10/21 02:46:21;;;;;;;9.30;3.57;;;12.70;99.90;;;;;;6250520;23;20183;-47
2022/10/21 02:48:47;;;;;;;4.27;3.23;;;12.70;99.90;;;;;;6251690;22;20622;-47
2022/10/21 02:51:14;;;;;;;7.17;3.50;;;12.70;99.90;;;;;;6252057;22;20151;-47
2022/10/21 02:53:40;;;;;;;4.37;3.43;;;12.70;99.90;;;;;;6251605;22;20484;-45
2022/10/21 02:56:06;;;;;;;7.87;3.47;;;12.70;99.90;;;;;;6250542;22;20203;-46
2022/10/21 02:58:32;;;;;;;7.70;3.47;;;12.70;99.90;;;;;;6251654;22;20168;-46
2022/10/21 03:00:57;;;;;;;4.60;3.40;;;12.70;99.90;;;;;;6251578;22;20467;-47
2022/10/21 03:03:23;;;;;;;7.20;3.70;;;12.60;99.90;;;;;;6250155;23;20222;-45
2022/10/21 03:05:49;;;;;;;7.57;3.60;;;12.50;99.90;;;;;;6251963;22;20154;-46
2022/10/21 03:08:14;;;;;;;7.50;3.50;;;12.60;99.90;;;;;;6251740;22;20207;-45
2022/10/21 03:10:40;;;;;;;11.13;3.73;;;12.50;99.90;;;;;;6252104;22;20226;-46
2022/10/21 03:13:06;;;;;;;9.30;4.20;;;12.50;99.90;;;;;;6252493;22;20156;-46
2022/10/21 03:15:31;;;;;;;4.43;3.40;;;12.40;99.90;;;;;;6251352;22;20218;-48
2022/10/21 03:17:57;;;;;;;9.77;3.70;;;12.30;99.90;;;;;;6251700;22;20179;-45
2022/10/21 03:20:22;;;;;;;9.07;3.30;;;12.30;99.90;;;;;;6251578;22;20496;-47
2022/10/21 03:22:48;;;;;;;5.90;3.20;;;12.30;99.90;;;;;;6252471;22;20151;-45
2022/10/21 03:25:13;;;;;;;4.73;3.20;;;12.20;99.90;;;;;;6253226;22;20160;-46
2022/10/21 03:27:39;;;;;;;7.60;3.20;;;12.20;99.90;;;;;;6252022;22;20183;-45
2022/10/21 03:30:06;;;;;;;5.30;2.50;;;12.20;99.90;;;;;;6251981;22;20198;-47
2022/10/21 03:32:32;;;;;;;4.57;2.87;;;12.10;99.90;;;;;;6251526;22;20155;-47
2022/10/21 03:34:58;;;;;;;9.83;3.30;;;12.00;99.90;;;;;;6252474;22;20152;-45
2022/10/21 03:37:23;;;;;;;4.03;2.80;;;12.00;99.90;;;;;;6251594;22;20179;-46
2022/10/21 03:39:49;;;;;;;8.57;3.23;;;12.00;99.90;;;;;;6251662;22;20155;-46
2022/10/21 03:42:14;;;;;;;6.17;3.17;;;11.90;99.90;;;;;;6250360;22;20156;-48
2022/10/21 03:44:40;;;;;;;4.60;2.83;;;11.90;99.90;;;;;;6248468;23;20159;-45
2022/10/21 03:47:07;;;;;;;4.40;2.43;;;11.80;99.90;;;;;;6249464;22;20673;-45
2022/10/21 03:49:32;;;;;;;4.80;2.40;;;11.80;99.90;;;;;;6249603;22;20151;-47
2022/10/21 03:51:58;;;;;;;3.80;2.70;;;11.80;99.90;;;;;;6249509;22;20156;-46
2022/10/21 03:54:23;;;;;;;4.20;2.77;;;11.80;99.90;;;;;;6250133;22;20293;-44
2022/10/21 03:56:49;;;;;;;6.73;2.73;;;11.90;99.90;;;;;;6223455;23;20152;-47
2022/10/21 03:59:14;;;;;;;10.07;2.77;;;11.90;99.90;;;;;;6250805;22;20147;-47
2022/10/21 04:01:40;;;;;;;5.10;2.77;;;11.90;99.90;;;;;;6251560;22;20624;-44
2022/10/21 04:04:06;;;;;;;7.00;2.97;;;11.90;99.90;;;;;;6249727;22;20175;-45
2022/10/21 04:06:32;;;;;;;3.63;2.50;;;11.90;99.90;;;;;;6246240;23;20187;-45
2022/10/21 04:08:57;;;;;;;3.80;2.40;;;11.90;99.90;;;;;;6249499;22;20198;-44
2022/10/21 04:11:23;;;;;;;5.77;2.73;;;11.90;99.90;;;;;;6248057;23;20478;-40
2022/10/21 04:13:48;;;;;;;5.33;2.50;;;11.90;99.90;;;;;;6246233;22;20200;-44
2022/10/21 04:16:17;;;;;;;5.67;2.30;;;11.90;99.90;;;;;;6246187;22;20612;-40
2022/10/21 04:18:43;;;;;;;4.03;2.30;;;11.90;99.90;;;;;;6246064;22;20167;-41
2022/10/21 04:21:08;;;;;;;7.37;2.53;;;12.00;99.90;;;;;;6246921;22;20152;-40
2022/10/21 04:23:35;;;;;;;5.67;2.33;;;12.00;99.90;;;;;;6246412;22;20159;-41
2022/10/21 04:26:01;;;;;;;4.73;2.60;;;12.00;99.90;;;;;;6245993;22;20148;-42
2022/10/21 04:28:27;;;;;;;4.13;2.87;;;12.00;99.90;;;;;;6245828;22;20180;-44
2022/10/21 04:30:52;;;;;;;6.07;2.57;;;12.00;99.90;;;;;;6246478;22;20143;-40
2022/10/21 04:33:18;;;;;;;5.80;2.70;;;12.00;99.90;;;;;;6246030;22;20161;-39
2022/10/21 04:35:44;;;;;;;8.10;3.23;;;12.00;99.90;;;;;;6246091;22;20532;-40
2022/10/21 04:38:09;;;;;;;4.10;2.40;;;12.00;99.90;;;;;;6246195;22;20171;-41
2022/10/21 04:40:35;;;;;;;5.80;2.70;;;12.00;99.90;;;;;;6245990;22;20159;-43
2022/10/21 04:43:00;;;;;;;5.00;3.00;;;12.00;99.90;;;;;;6246756;22;20483;-43
2022/10/21 04:45:26;;;;;;;3.87;2.57;;;12.00;99.90;;;;;;6246003;22;20165;-40
2022/10/21 04:47:52;;;;;;;7.63;2.67;;;12.10;99.90;;;;;;6246159;22;20328;-42
2022/10/21 04:50:18;;;;;;;7.40;3.07;;;12.10;99.90;;;;;;6246328;22;20159;-41
2022/10/21 04:52:43;;;;;;;3.80;2.70;;;12.10;99.90;;;;;;6245933;22;20625;-40
2022/10/21 04:55:09;;;;;;;8.43;2.80;;;12.20;99.90;;;;;;6247758;22;20152;-42
2022/10/21 04:57:34;;;;;;;8.80;2.87;;;12.20;99.90;;;;;;6248070;22;20254;-42
2022/10/21 05:00:00;;;;;;;6.20;3.03;;;12.20;99.90;;;;;;6248641;22;20185;-42
2022/10/21 05:02:26;;;;;;;7.20;2.90;;;12.10;99.90;;;;;;6246815;23;20163;-42
2022/10/21 05:04:51;;;;;;;8.67;3.17;;;12.20;99.90;;;;;;6248269;22;20647;-42
2022/10/21 05:07:17;;;;;;;6.40;2.80;;;12.20;99.90;;;;;;6248153;22;20254;-39
2022/10/21 05:09:43;;;;;;;7.50;3.20;;;12.10;99.90;;;;;;6247992;22;20151;-42
2022/10/21 05:12:08;;;;;;;4.57;2.90;;;12.20;99.90;;;;;;6247985;22;20147;-43
2022/10/21 05:14:34;;;;;;;8.13;2.73;;;12.20;99.90;;;;;;6248252;22;20174;-41
2022/10/21 05:16:59;;;;;;;4.87;3.03;;;12.20;99.90;;;;;;6248157;22;20265;-39
2022/10/21 05:19:25;;;;;;;5.80;3.47;;;12.20;99.90;;;;;;6247979;22;20162;-43
2022/10/21 05:21:50;;;;;;;5.90;2.60;;;12.20;99.90;;;;;;6247844;22;20156;-42
2022/10/21 05:24:17;;;;;;;7.13;2.77;;;12.30;99.90;;;;;;6247266;23;20217;-41
2022/10/21 05:26:43;;;;;;;6.07;3.40;;;12.30;99.90;;;;;;6247626;22;20515;-41
2022/10/21 05:29:08;;;;;;;6.17;3.40;;;12.30;99.90;;;;;;6247804;22;20172;-39
2022/10/21 05:31:34;;;;;;;10.87;3.57;;;12.30;99.90;;;;;;6248102;22;20162;-40
2022/10/21 05:34:00;;;;;;;5.97;3.47;;;12.40;99.90;;;;;;6247697;22;20235;-42
2022/10/21 05:36:25;;;;;;;4.67;3.10;;;12.30;99.90;;;;;;6248062;22;20613;-42
2022/10/21 05:38:51;;;;;;;14.23;4.67;;;12.30;99.90;;;;;;6247558;22;20198;-40
2022/10/21 05:41:17;;;;;;;8.37;3.53;;;12.30;99.90;;;;;;6247649;22;20234;-40
2022/10/21 05:43:43;;;;;;;4.57;3.23;;;12.30;99.90;;;;;;6247657;22;20496;-41
2022/10/21 05:46:08;;;;;;;5.20;3.07;;;12.40;99.90;;;;;;6247492;22;20155;-41
2022/10/21 05:48:35;;;;;;;10.87;3.73;;;12.30;99.90;;;;;;6245880;23;20240;-43
2022/10/21 05:51:00;;;;;;;6.80;3.70;;;12.30;99.90;;;;;;6247364;22;20632;-44
2022/10/21 05:53:26;;;;;;;3.97;3.40;;;12.30;99.90;;;;;;6247783;22;20163;-41
2022/10/21 05:56:04;;;;;;;6.67;3.20;;;12.30;99.90;;;;;;6247473;22;20162;-41
2022/10/21 05:58:30;;;;;;;6.97;3.33;;;12.30;99.90;;;;;;6247345;22;20183;-43
2022/10/21 06:00:57;;;;;;;7.67;3.60;;;12.20;99.90;;;;;;6247452;22;20247;-42
2022/10/21 06:03:24;;;;;;;7.73;3.87;;;12.20;99.90;;;;;;6247705;22;20159;-41
2022/10/21 06:05:50;;;;;;;6.63;3.03;;;12.30;99.90;;;;;;6245871;23;20156;-43
2022/10/21 06:08:16;;;;;;;5.33;2.87;;;12.30;99.90;;;;;;6246986;22;20217;-40
2022/10/21 06:10:42;;;;;;;9.70;3.10;;;12.30;99.90;;;;;;6247396;22;20155;-40
2022/10/21 06:13:08;;;;;;;5.13;3.20;;;12.30;99.90;;;;;;6247641;22;20158;-40
2022/10/21 06:15:34;;;;;;;8.90;3.37;;;12.30;99.90;;;;;;6247624;22;20179;-41
2022/10/21 06:18:00;;;;;;;6.20;3.33;;;12.40;99.90;;;;;;6247191;22;20183;-40
2022/10/21 06:20:25;;;;;;;5.37;3.33;;;12.40;99.90;;;;;;6247243;22;20485;-41
2022/10/21 06:22:51;;;;;;;7.90;3.30;;;12.50;99.90;;;;;;6247866;22;20603;-43
2022/10/21 06:25:16;;;;;;;7.20;3.10;;;12.60;99.90;;;;;;6247154;22;20166;-41
2022/10/21 06:27:42;;;;;;;8.00;3.10;;;12.70;99.90;;;;;;6247382;22;20265;-41
2022/10/21 06:30:08;;;;;;;11.17;3.20;;;12.70;99.90;;;;;;6247126;22;20177;-42
2022/10/21 06:32:34;;;;;;;4.97;2.80;;;12.80;99.90;;;;;;6247794;22;20537;-44
2022/10/21 06:35:00;;;;;;;10.80;3.70;;;12.90;99.90;;;;;;6247609;22;20152;-44
2022/10/21 06:37:26;;;;;;;5.83;3.40;;;12.90;99.90;;;;;;6247272;22;20691;-41
2022/10/21 06:39:51;;;;;;;4.93;3.10;;;13.00;99.90;;;;;;6247791;22;20162;-39
2022/10/21 06:42:17;;;;;;;5.70;3.37;;;13.10;99.90;;;;;;6247423;22;20183;-41
2022/10/21 06:44:42;;;;;;;7.00;3.20;;;13.10;99.90;;;;;;6247091;22;20156;-41
2022/10/21 06:47:09;;;;;;;6.80;3.60;;;13.10;99.90;;;;;;6246837;22;20188;-41
2022/10/21 06:49:34;;;;;;;6.90;3.47;;;13.10;99.90;;;;;;6247050;22;20155;-42
2022/10/21 06:52:00;;;;;;;7.23;3.73;;;13.00;99.90;;;;;;6247649;22;20522;-41
2022/10/21 06:54:26;;;;;;;5.50;3.50;;;13.10;99.90;;;;;;6247049;22;20159;-43
2022/10/21 06:56:51;;;;;;;9.73;4.00;;;13.10;99.90;;;;;;6247002;22;20162;-41
2022/10/21 06:59:17;;;;;;;7.87;4.00;;;13.10;99.90;;;;;;6246936;22;20160;-40
2022/10/21 07:01:42;;;;;;;8.30;3.83;;;13.10;99.90;;;;;;6247362;22;20527;-40
2022/10/21 07:04:09;;;;;;;9.90;3.90;;;13.10;99.90;;;;;;6245637;23;20497;-42
2022/10/21 07:06:34;;;;;;;8.50;3.97;;;13.10;99.90;;;;;;6246897;22;20182;-40
2022/10/21 07:09:00;;;;;;;6.27;3.70;;;13.20;99.90;;;;;;6247837;22;20159;-42
2022/10/21 07:11:26;;;;;;;7.37;3.70;;;13.20;99.90;;;;;;6246894;22;20237;-41
2022/10/21 07:13:52;;;;;;;9.67;4.00;;;13.20;99.90;;;;;;6246850;22;20152;-40
2022/10/21 07:16:23;;;;;;;14.13;4.43;;;13.20;99.90;;;;;;6247093;22;20159;-43
2022/10/21 07:18:49;;;;;;;8.83;4.47;;;13.20;99.90;;;;;;6247561;22;20275;-42
2022/10/21 07:21:21;;;;;;;21.60;8.13;;;13.20;99.90;;;;;;6247202;22;20147;-42
2022/10/21 07:23:50;;;;;;;9.90;7.30;;;13.30;99.90;;;;;;6247003;22;20163;-44
2022/10/21 07:26:16;;;;;;;11.60;4.93;;;13.30;99.90;;;;;;6246718;22;20178;-43
2022/10/21 07:28:45;;;;;;;10.03;4.57;;;13.30;99.90;;;;;;6246785;22;20209;-42
2022/10/21 07:31:11;;;;;;;12.53;4.27;;;13.30;99.90;;;;;;6247181;22;20140;-42
2022/10/21 07:33:37;;;;;;;13.77;5.30;;;13.30;99.90;;;;;;6247084;22;20211;-39
2022/10/21 07:36:26;;;;;;;13.90;4.87;;;13.30;99.90;;;;;;6246758;22;20190;-42
2022/10/21 07:38:54;;;;;;;13.83;5.03;;;13.30;99.90;;;;;;6246751;22;20172;-41
2022/10/21 07:41:24;;;;;;;12.07;5.13;;;13.30;99.90;;;;;;6246704;22;20254;-40
2022/10/21 07:43:50;;;;;;;8.13;4.57;;;13.30;99.90;;;;;;6246904;22;20594;-40
2022/10/21 07:46:17;;;;;;;16.50;5.60;;;13.40;99.90;;;;;;6246362;22;20160;-41
2022/10/21 07:48:43;;;;;;;15.07;6.07;;;13.50;99.90;;;;;;6246394;22;20171;-43
2022/10/21 07:51:12;;;;;;;14.77;5.50;;;13.50;99.90;;;;;;6246477;22;20232;-41
2022/10/21 07:53:39;;;;;;;19.70;5.60;;;13.50;99.90;;;;;;6246324;22;20159;-43
2022/10/21 07:56:14;;;;;;;11.60;5.33;;;13.60;99.90;;;;;;6246308;22;20474;-40
2022/10/21 07:58:40;;;;;;;11.77;5.43;;;13.50;99.90;;;;;;6246322;23;20202;-43
2022/10/21 08:01:07;;;;;;;19.33;6.63;;;13.60;99.90;;;;;;6246268;22;20638;-40
2022/10/21 08:03:33;;;;;;;20.80;7.63;;;13.60;99.90;;;;;;6246287;22;20617;-42
2022/10/21 08:05:59;;;;;;;15.77;7.20;;;13.60;99.90;;;;;;6246351;22;20152;-40
2022/10/21 08:08:25;;;;;;;17.13;6.10;;;13.60;99.90;;;;;;6245997;22;20214;-41
2022/10/21 08:10:52;;;;;;;10.40;5.03;;;13.60;99.90;;;;;;6246160;22;20160;-43
2022/10/21 08:13:18;;;;;;;14.57;5.13;;;13.60;99.90;;;;;;6246251;22;20155;-43
2022/10/21 08:15:46;;;;;;;15.60;5.53;;;13.60;99.90;;;;;;6246154;22;20152;-42
2022/10/21 08:18:11;;;;;;;16.77;6.07;;;13.60;99.90;;;;;;6246745;22;20275;-42
2022/10/21 08:20:42;;;;;;;28.37;6.80;;;13.60;99.90;;;;;;6244669;23;20195;-40
2022/10/21 08:23:09;;;;;;;21.93;6.93;;;13.70;99.90;;;;;;6246396;22;20155;-40
2022/10/21 08:25:35;;;;;;;19.07;7.13;;;13.70;99.90;;;;;;6246251;22;20171;-41
2022/10/21 08:28:02;;;;;;;17.37;6.63;;;13.70;99.90;;;;;;6246226;22;20545;-42
2022/10/21 08:30:31;;;;;;;19.83;6.00;;;13.70;99.90;;;;;;6245937;22;20174;-42
2022/10/21 08:32:58;;;;;;;16.23;6.03;;;13.80;99.90;;;;;;6246144;22;20155;-42
2022/10/21 08:35:24;;;;;;;19.10;6.33;;;13.70;99.90;;;;;;6244568;23;20151;-43
2022/10/21 08:37:50;;;;;;;15.73;7.17;;;13.70;99.90;;;;;;6246775;22;20681;-43
2022/10/21 08:40:16;;;;;;;18.27;7.40;;;13.80;99.90;;;;;;6246130;22;20194;-41
2022/10/21 08:42:44;;;;;;;22.23;8.00;;;13.80;99.90;;;;;;6246351;22;20186;-40
2022/10/21 08:45:14;;;;;;;15.43;7.47;;;13.90;99.90;;;;;;6246015;22;20179;-42
2022/10/21 08:47:45;;;;;;;23.13;7.87;;;14.00;99.90;;;;;;6245797;22;20198;-41
2022/10/21 08:50:20;;;;;;;17.40;7.10;;;14.10;99.90;;;;;;6246483;22;20229;-42
2022/10/21 08:52:53;;;;;;;16.33;6.87;;;14.20;99.90;;;;;;6246105;22;20151;-42
2022/10/21 08:55:34;;;;;;;15.47;6.03;;;14.30;99.90;;;;;;6248007;22;20144;-45
2022/10/21 08:58:00;;;;;;;16.00;7.27;;;14.30;99.90;;;;;;6247251;23;20190;-47
2022/10/21 09:00:33;;;;;;;16.50;6.70;;;14.40;99.90;;;;;;6246854;23;20191;-45
2022/10/21 09:03:17;;;;;;;20.13;6.27;;;14.50;99.90;;;;;;6248843;22;20144;-47
2022/10/21 09:06:03;;;;;;;18.70;7.10;;;14.50;99.90;;;;;;6248888;22;20558;-48
2022/10/21 09:08:32;;;;;;;17.43;7.20;;;14.60;99.90;;;;;;6248820;22;20629;-47
2022/10/21 09:11:03;;;;;;;21.47;7.73;;;14.60;99.90;;;;;;6249637;22;20235;-46
2022/10/21 09:14:03;;;;;;;16.30;7.47;;;14.60;99.90;;;;;;6249099;23;20151;-46
2022/10/21 09:16:40;;;;;;;20.57;7.30;;;14.70;99.90;;;;;;6250936;23;20166;-47
2022/10/21 09:19:41;;;;;;;15.07;7.17;;;14.60;99.90;;;;;;6248975;23;20174;-45
2022/10/21 09:22:45;;;;;;;18.10;7.23;;;14.70;99.90;;;;;;6250977;22;20235;-47
2022/10/21 09:25:23;;;;;;;21.93;8.13;;;14.70;99.90;;;;;;6250066;23;20166;-45
2022/10/21 09:27:49;;;;;;;19.83;7.73;;;14.70;99.90;;;;;;6250759;22;20187;-45
2022/10/21 09:30:20;;;;;;;19.90;7.57;;;14.80;99.90;;;;;;6251109;22;20178;-45
2022/10/21 09:32:49;;;;;;;22.23;7.30;;;14.80;99.90;;;;;;6251473;22;20136;-47
2022/10/21 09:35:57;;;;;;;19.73;7.30;;;14.80;99.90;;;;;;6249533;23;20231;-46
2022/10/21 09:38:27;;;;;;;20.57;7.27;;;14.80;99.90;;;;;;6250728;22;20179;-45
2022/10/21 09:41:00;;;;;;;19.63;7.10;;;14.80;99.90;;;;;;6252514;22;20140;-46
2022/10/21 09:43:26;;;;;;;17.80;7.27;;;14.80;99.90;;;;;;6253416;22;20147;-46
2022/10/21 09:45:52;;;;;;;21.00;6.73;;;14.90;99.90;;;;;;6251332;23;20180;-47
2022/10/21 09:48:27;;;;;;;16.43;6.90;;;14.80;99.90;;;;;;6253782;22;20188;-46
2022/10/21 09:50:58;;;;;;;20.73;6.67;;;14.90;99.90;;;;;;6253323;22;20136;-46
2022/10/21 09:53:36;;;;;;;17.10;6.47;;;14.90;99.90;;;;;;6251542;23;20144;-46
2022/10/21 09:56:09;;;;;;;15.90;7.07;;;14.90;99.90;;;;;;6252406;22;20147;-47
2022/10/21 09:58:37;;;;;;;15.37;6.63;;;14.90;99.90;;;;;;6252871;22;20184;-46
2022/10/21 10:01:04;;;;;;;18.17;7.23;;;14.90;99.90;;;;;;6252972;22;20156;-45
2022/10/21 10:03:36;;;;;;;18.93;7.17;;;14.90;99.90;;;;;;6251503;22;20184;-46
2022/10/21 10:06:04;;;;;;;17.13;7.93;;;14.90;99.90;;;;;;6252285;22;20156;-46
2022/10/21 10:08:35;;;;;;;22.23;7.80;;;14.90;99.90;;;;;;6252299;22;20191;-45
2022/10/21 10:11:10;;;;;;;17.00;7.83;;;15.00;99.90;;;;;;6252558;22;20149;-45
2022/10/21 10:13:44;;;;;;;19.23;7.80;;;15.00;99.90;;;;;;6251772;23;20152;-46
2022/10/21 10:16:27;;;;;;;17.67;7.47;;;15.00;99.90;;;;;;6250742;23;20491;-45
2022/10/21 10:19:17;;;;;;;13.93;6.90;;;15.00;99.90;;;;;;6250394;23;20185;-45
2022/10/21 10:21:44;;;;;;;18.30;7.33;;;15.10;99.90;;;;;;6253769;22;20155;-45
2022/10/21 10:24:16;;;;;;;15.23;7.50;;;15.10;99.90;;;;;;6253011;22;20152;-44
2022/10/21 10:26:42;;;;;;;17.07;6.67;;;15.10;99.90;;;;;;6246546;23;20187;-39
2022/10/21 10:29:25;;;;;;;13.77;6.33;;;15.20;99.90;;;;;;6247056;22;20241;-41
2022/10/21 10:31:55;;;;;;;13.03;5.87;;;15.20;99.90;;;;;;6247679;22;20144;-41
2022/10/21 10:34:25;;;;;;;8.17;4.00;;;15.20;99.90;;;;;;6247808;22;20617;-41
2022/10/21 10:37:04;;;;;;;10.57;3.63;;;15.30;99.90;;;;;;6247591;22;20484;-41
2022/10/21 10:39:33;;;;;;;8.70;3.60;;;15.40;99.90;;;;;;6247275;22;20140;-40
2022/10/21 10:42:00;;;;;;;5.47;2.57;;;15.40;99.90;;;;;;6247422;22;20234;-40
2022/10/21 10:44:39;;;;;;;6.13;2.40;;;15.50;99.90;;;;;;6245578;23;20163;-41
2022/10/21 10:47:08;;;;;;;8.90;2.83;;;15.60;99.90;;;;;;6245692;23;20664;-39
2022/10/21 10:49:41;;;;;;;3.80;2.33;;;15.70;99.90;;;;;;6247706;22;20242;-41
2022/10/21 10:52:09;;;;;;;5.87;2.33;;;15.80;99.90;;;;;;6247350;22;20157;-40
2022/10/21 10:54:36;;;;;;;4.17;2.80;;;15.90;99.90;;;;;;6248195;22;20162;-42
2022/10/21 10:57:22;;;;;;;4.53;2.00;;;16.00;99.90;;;;;;6246838;22;20637;-42
2022/10/21 11:00:03;;;;;;;4.33;1.80;;;16.10;99.90;;;;;;6247325;22;20150;-40
2022/10/21 11:02:54;;;;;;;3.40;1.97;;;16.20;99.90;;;;;;6247770;22;20143;-42
2022/10/21 11:05:19;;;;;;;4.87;1.80;;;16.40;99.90;;;;;;6245502;23;20202;-41
2022/10/21 11:07:49;;;;;;;3.37;1.63;;;16.50;99.90;;;;;;6246764;22;20199;-41
2022/10/21 11:10:24;;;;;;;3.50;1.53;;;16.60;99.90;;;;;;6245363;23;20597;-42
2022/10/21 11:12:49;;;;;;;5.20;1.90;;;16.80;99.90;;;;;;6247196;22;20227;-41
2022/10/21 11:15:15;;;;;;;5.17;1.50;;;16.90;99.90;;;;;;6247355;22;20524;-41
2022/10/21 11:17:56;;;;;;;2.93;0.97;;;17.00;99.90;;;;;;6247360;22;20259;-42
2022/10/21 11:20:31;;;;;;;4.17;1.27;;;17.10;99.90;;;;;;6247197;22;20504;-40
2022/10/21 11:23:39;;;;;;;2.80;1.20;;;17.20;99.90;;;;;;6247035;22;20159;-43
2022/10/21 11:26:37;;;;;;;1.33;1.23;;;17.40;99.90;;;;;;6245073;23;20159;-40
2022/10/21 11:29:21;;;;;;;1.73;0.97;;;17.60;99.90;;;;;;6246824;22;20172;-41
2022/10/21 11:32:43;;;;;;;2.47;1.00;;;17.70;99.90;;;;;;6246975;22;20187;-43
2022/10/21 11:35:16;;;;;;;2.17;1.03;;;17.90;99.90;;;;;;6198890;23;20156;-40
2022/10/21 11:37:51;;;;;;;2.27;1.03;;;18.00;99.90;;;;;;6246864;22;20171;-42
2022/10/21 11:40:39;;;;;;;2.13;1.00;;;18.20;99.90;;;;;;6246517;22;20166;-41
2022/10/21 11:43:30;;;;;;;2.13;1.00;;;18.40;99.90;;;;;;6246915;22;20148;-41
2022/10/21 11:46:23;;;;;;;1.43;0.90;;;18.60;99.90;;;;;;6246653;22;20144;-40
2022/10/21 11:49:07;;;;;;;2.10;1.00;;;18.80;99.90;;;;;;6247504;22;20180;-42
2022/10/21 11:51:41;;;;;;;1.67;0.90;;;19.00;99.90;;;;;;6246397;22;20148;-40
2022/10/21 11:54:29;;;;;;;1.50;0.97;;;19.20;99.90;;;;;;6244894;23;20147;-42
2022/10/21 11:56:54;;;;;;;1.07;0.60;;;19.20;99.90;;;;;;6246566;22;20506;-43
2022/10/21 11:59:30;;;;;;;1.67;0.80;;;19.30;99.90;;;;;;6246614;22;20158;-40
2022/10/21 12:01:56;;;;;;;0.87;0.60;;;19.30;99.90;;;;;;6246904;22;20144;-40
2022/10/21 12:04:36;;;;;;;1.40;0.80;;;19.50;99.90;;;;;;6246110;22;20246;-43
2022/10/21 12:07:28;;;;;;;2.27;0.87;;;19.60;99.90;;;;;;6246505;22;20190;-39
2022/10/21 12:10:26;;;;;;;0.50;0.50;;;19.60;99.90;;;;;;6246622;22;20190;-42
2022/10/21 12:12:56;;;;;;;5.83;0.97;;;19.70;99.90;;;;;;6215789;22;20160;-42
2022/10/21 12:15:39;;;;;;;0.83;0.70;;;19.80;99.90;;;;;;6246586;22;20201;-41
2022/10/21 12:18:09;;;;;;;0.90;0.60;;;19.80;99.90;;;;;;6246562;22;20171;-40
2022/10/21 12:20:35;;;;;;;2.40;0.67;;;19.80;99.90;;;;;;6246191;22;20159;-40
2022/10/21 12:23:06;;;;;;;0.50;0.47;;;19.70;99.90;;;;;;6246162;22;20187;-41
2022/10/21 12:25:35;;;;;;;1.13;0.47;;;19.60;99.90;;;;;;6244574;23;20163;-42
2022/10/21 12:28:20;;;;;;;1.17;0.60;;;19.50;99.90;;;;;;6245967;22;20187;-43
2022/10/21 12:31:00;;;;;;;0.60;0.60;;;19.50;99.90;;;;;;6246580;22;20189;-42
2022/10/21 12:33:36;;;;;;;1.23;0.67;;;19.50;99.90;;;;;;6246397;22;20162;-43
2022/10/21 12:36:17;;;;;;;1.33;0.60;;;19.70;99.90;;;;;;6246470;22;20146;-41
2022/10/21 12:38:52;;;;;;;0.93;0.50;;;19.80;99.90;;;;;;6244476;23;20179;-41
2022/10/21 12:41:36;;;;;;;0.50;0.50;;;19.90;99.90;;;;;;6244444;23;20185;-40
2022/10/21 12:44:02;;;;;;;1.17;0.70;;;20.00;99.90;;;;;;6246387;22;20158;-39
2022/10/21 12:46:40;;;;;;;2.37;0.80;;;20.00;99.90;;;;;;6248528;22;20151;-48
2022/10/21 12:49:14;;;;;;;2.57;0.47;;;20.00;99.90;;;;;;6249497;22;20158;-46
2022/10/21 12:51:52;;;;;;;1.30;0.50;;;19.90;99.90;;;;;;6249651;22;20150;-46
2022/10/21 12:54:26;;;;;;;1.23;0.50;;;19.90;99.90;;;;;;6249951;22;20135;-47
2022/10/21 12:57:03;;;;;;;1.43;0.83;;;19.90;99.90;;;;;;6249742;22;20582;-47
2022/10/21 12:59:35;;;;;;;2.17;0.50;;;19.80;99.90;;;;;;6250205;22;20151;-46